Crisp Cnty-Cordele AP, Cordel, GA

7:03 AM EST on November 13, 2019 (GMT -0500)
Crisp County-Cordele

Weather History for KCKF - October, 2019

Change the Weather History Date:

Wednesday, October 23, 2019

  Actual Average (KFZG) Record (KFZG)
Temperature  
Mean Temperature 58 °F -  
Max Temperature 72 °F 77 °F 84 °F (2015)
Min Temperature 45 °F 53 °F 41 °F (2016)
Degree Days  
Heating Degree Days 6    
Growing Degree Days 8 (Base 50)    
Moisture  
Dew Point 40 °F    
Average Humidity 56    
Maximum Humidity 92    
Minimum Humidity 23    
Precipitation  
Precipitation 0.00 in - - ()
Sea Level Pressure  
Sea Level Pressure 30.16 in    
Wind  
Wind Speed 4 mph (North)    
Max Wind Speed 17 mph    
Max Gust Speed 24 mph    
Visibility 10 miles    
Events      
Averages and records for this station are not official NWS values.
T = Trace of Precipitation, MM = Missing Value Source: NWS Daily Summary

Daily Weather History Graph

Daily Weather History Graph

Search for Another Location

Airport or City:

Astronomy

Oct. 23, 2019 Rise Set
Actual Time 7:44 AM EDT 6:54 PM EDT
Civil Twilight 7:19 AM EDT 7:18 PM EDT
Nautical Twilight 6:50 AM EDT 7:47 PM EDT
Astronomical Twilight 6:22 AM EDT 8:15 PM EDT
Moon 2:27 AM EDT (10/23) 4:20 PM EDT (10/23)
Length of Visible Light 11h 59m
Length of Day
11h 09m
Waning Crescent, 27% of the Moon is Illuminated
Oct 23
Waning Crescent
Oct 27
New
Nov 4
First Quarter
Nov 12
Full
Nov 19
Last Quarter

Hourly Weather History & Observations

Time (EDT) Temp. Dew Point Humidity Pressure Visibility Wind Dir Wind Speed Gust Speed Precip Events Conditions
12:15 AM 55.2 °F 47.5 °F 75% 30.09 in 10.0 mi West 3.5 mph - N/A   Clear
12:35 AM 55.8 °F 43.9 °F 64% 30.10 in 10.0 mi WNW 5.8 mph - N/A   Clear
12:55 AM 56.3 °F 42.3 °F 59% 30.10 in 10.0 mi WNW 4.6 mph - N/A   Clear
1:15 AM 56.5 °F 41.2 °F 57% 30.10 in 10.0 mi WNW 4.6 mph - N/A   Clear
1:35 AM 54.9 °F 41.4 °F 60% 30.10 in 10.0 mi WNW 4.6 mph - N/A   Clear
1:55 AM 56.3 °F 38.8 °F 52% 30.11 in 10.0 mi NW 5.8 mph - N/A   Clear
2:15 AM 56.1 °F 38.7 °F 52% 30.11 in 10.0 mi NW 4.6 mph - N/A   Clear
2:35 AM 55.8 °F 39.4 °F 54% 30.11 in 10.0 mi Calm Calm - N/A   Clear
2:55 AM 54.1 °F 40.8 °F 61% 30.10 in 10.0 mi Calm Calm - N/A   Clear
3:15 AM 51.8 °F 41.9 °F 69% 30.10 in 10.0 mi NNW 3.5 mph - N/A   Clear
3:35 AM 50.9 °F 43.0 °F 74% 30.10 in 10.0 mi Calm Calm - N/A   Clear
3:55 AM 50.4 °F 45.0 °F 82% 30.10 in 10.0 mi NNW 3.5 mph - N/A   Clear
4:15 AM 51.8 °F 43.0 °F 72% 30.10 in 10.0 mi Calm Calm - N/A   Clear
4:35 AM 52.0 °F 40.6 °F 65% 30.11 in 10.0 mi Calm Calm - N/A   Clear
4:55 AM 52.2 °F 40.5 °F 64% 30.12 in 10.0 mi Calm Calm - N/A   Clear
5:15 AM 52.0 °F 40.5 °F 65% 30.12 in 10.0 mi NNW 3.5 mph - N/A   Clear
5:35 AM 51.1 °F 41.0 °F 68% 30.13 in 10.0 mi NNW 3.5 mph - N/A   Clear
5:55 AM 49.1 °F 42.8 °F 79% 30.14 in 10.0 mi NNW 4.6 mph - N/A   Clear
6:15 AM 48.9 °F 41.9 °F 77% 30.14 in 10.0 mi North 3.5 mph - N/A   Clear
6:35 AM 50.0 °F 41.5 °F 73% 30.14 in 10.0 mi North 3.5 mph - N/A   Clear
6:55 AM 49.3 °F 41.0 °F 73% 30.14 in 10.0 mi Calm Calm - N/A   Clear
7:15 AM 47.7 °F 42.1 °F 81% 30.15 in 10.0 mi Calm Calm - N/A   Clear
7:35 AM 46.9 °F 42.3 °F 84% 30.16 in 10.0 mi Calm Calm - N/A   Clear
7:55 AM 46.4 °F 42.8 °F 87% 30.16 in 10.0 mi Calm Calm - N/A   Clear
8:15 AM 45.9 °F 43.7 °F 92% 30.17 in 10.0 mi Calm Calm - N/A   Clear
8:35 AM 47.7 °F 45.0 °F 90% 30.17 in 10.0 mi North 5.8 mph - N/A   Clear
8:55 AM 51.4 °F 42.6 °F 72% 30.17 in 10.0 mi Calm Calm - N/A   Clear
9:15 AM 53.6 °F 42.3 °F 65% 30.19 in 10.0 mi NNE 6.9 mph - N/A   Clear
9:35 AM 55.9 °F 42.3 °F 60% 30.19 in 10.0 mi NNE 4.6 mph - N/A   Clear
9:55 AM 58.3 °F 39.9 °F 50% 30.20 in 10.0 mi NE 5.8 mph - N/A   Clear
10:15 AM 60.4 °F 36.1 °F 40% 30.20 in 10.0 mi NNE 11.5 mph 17.3 mph N/A   Clear
10:35 AM 61.9 °F 34.2 °F 35% 30.21 in 10.0 mi NE 11.5 mph 20.7 mph N/A   Clear
10:55 AM 63.5 °F 32.5 °F 31% 30.21 in 10.0 mi NE 17.3 mph 21.9 mph N/A   Clear
11:15 AM 63.9 °F 32.0 °F 30% 30.21 in 10.0 mi NNE 16.1 mph 24.2 mph N/A   Clear
11:35 AM 64.2 °F 32.4 °F 30% 30.21 in 10.0 mi NNE 12.7 mph - N/A   Clear
11:55 AM 65.5 °F 32.7 °F 30% 30.20 in 10.0 mi NNE 11.5 mph 18.4 mph N/A   Clear
12:15 PM 66.4 °F 33.3 °F 29% 30.20 in 10.0 mi NNE 9.2 mph - N/A   Clear
12:35 PM 67.5 °F 32.5 °F 27% 30.19 in 10.0 mi ENE 10.4 mph 17.3 mph N/A   Clear
12:55 PM 68.0 °F 31.5 °F 26% 30.19 in 10.0 mi NE 8.1 mph - N/A   Clear
1:15 PM 68.0 °F 30.9 °F 25% 30.19 in 10.0 mi NE 6.9 mph - N/A   Clear
1:35 PM 68.7 °F 31.8 °F 25% 30.18 in 10.0 mi NE 9.2 mph - N/A   Clear
1:55 PM 68.5 °F 32.0 °F 26% 30.17 in 10.0 mi North 3.5 mph - N/A   Clear
2:15 PM 68.9 °F 31.5 °F 25% 30.16 in 10.0 mi NNW 3.5 mph - N/A   Clear
2:35 PM 70.0 °F 33.1 °F 26% 30.15 in 10.0 mi NNE 9.2 mph - N/A   Clear
2:55 PM 70.0 °F 30.4 °F 23% 30.15 in 10.0 mi NNW 6.9 mph - N/A   Clear
3:15 PM 71.1 °F 32.5 °F 24% 30.14 in 10.0 mi NNE 5.8 mph - N/A   Clear
3:35 PM 71.6 °F 31.8 °F 23% 30.14 in 10.0 mi North 5.8 mph - N/A   Clear
3:55 PM 71.4 °F 32.7 °F 24% 30.14 in 10.0 mi North 5.8 mph - N/A   Clear
4:15 PM 71.2 °F 32.5 °F 24% 30.14 in 10.0 mi East 3.5 mph - N/A   Clear
4:35 PM 71.8 °F 33.1 °F 24% 30.13 in 10.0 mi North 4.6 mph - N/A   Clear
4:55 PM 71.6 °F 32.0 °F 23% 30.13 in 10.0 mi NNE 3.5 mph - N/A   Clear
5:15 PM 72.0 °F 32.7 °F 24% 30.13 in 10.0 mi NNE 8.1 mph - N/A   Clear
5:35 PM 71.2 °F 33.1 °F 25% 30.13 in 10.0 mi NE 3.5 mph - N/A   Clear
5:55 PM 71.1 °F 33.8 °F 25% 30.13 in 10.0 mi NNE 3.5 mph - N/A   Clear
6:15 PM 70.3 °F 35.1 °F 27% 30.14 in 10.0 mi East 3.5 mph - N/A   Clear
6:35 PM 66.6 °F 44.6 °F 45% 30.14 in 10.0 mi Calm Calm - N/A   Clear
7:15 PM 59.7 °F 47.1 °F 63% 30.16 in 10.0 mi Calm Calm - N/A   Clear
7:35 PM 57.4 °F 46.9 °F 68% 30.16 in 10.0 mi Calm Calm - N/A   Clear
7:55 PM 55.6 °F 48.4 °F 77% 30.16 in 10.0 mi Calm Calm - N/A   Clear
8:15 PM 55.0 °F 47.8 °F 77% 30.17 in 10.0 mi Calm Calm - N/A   Clear
8:35 PM 54.0 °F 48.2 °F 81% 30.17 in 10.0 mi Calm Calm - N/A   Clear
8:55 PM 53.6 °F 46.8 °F 78% 30.17 in 10.0 mi Calm Calm - N/A   Clear
9:15 PM 52.3 °F 47.8 °F 85% 30.19 in 10.0 mi Calm Calm - N/A   Clear
9:35 PM 51.8 °F 47.8 °F 86% 30.19 in 10.0 mi Calm Calm - N/A   Clear
9:55 PM 51.1 °F 47.5 °F 87% 30.20 in 10.0 mi Calm Calm - N/A   Clear
10:15 PM 50.7 °F 46.8 °F 86% 30.20 in 10.0 mi Calm Calm - N/A   Clear
10:35 PM 50.7 °F 46.0 °F 84% 30.21 in 10.0 mi Calm Calm - N/A   Clear
10:55 PM 50.2 °F 45.1 °F 83% 30.21 in 10.0 mi Calm Calm - N/A   Clear
11:15 PM 49.5 °F 46.4 °F 89% 30.21 in 10.0 mi Calm Calm - N/A   Clear
11:35 PM 48.9 °F 45.0 °F 86% 30.21 in 10.0 mi Calm Calm - N/A   Clear
11:55 PM 48.4 °F 44.6 °F 87% 30.21 in 10.0 mi Calm Calm - N/A   Clear